Corsicana, TX (75110)

2:43 AM CST on December 20, 2014 (GMT -0600)
Carol Ave | Change Station
CLOSE
Current Station
Personal Weather Station
Location: Corsicana, TX
Elevation: 460 ft
Nearby Weather Stations

Elev 460 ft 32.12 °N, 96.49 °W | Updated 5 minutes ago

Overcast
Overcast
47.4 °F
Feels Like 47 °F
N
0.0
Wind Variable Wind from North
Gusts 3.0 mph

Today
High -- | Low -- °F
--% Chance of Precip.
Yesterday
High -- | Low -- °F
Precip. -- in
7:21 AM 5:24 PM
Waning Crescent, 4% visible
Pressure 30.20 in
Visibility 9.0 miles
Clouds Mostly Cloudy 1000 ft
Overcast 1700 ft
Windchill 47 °F
Dew Point 46 °F
Humidity 96%
Rainfall 0.00 in
Snow Depth Not available.
UV 0 out of 12
Pollen 5.80 out of 12
Air Quality Not available.
Flu Activity Not available.
SPECI KCRS 200809Z AUTO 02004KT 9SM BKN010 OVC017 09/07 A3020 RMK AO2 T00890067

More Conditions Fewer Conditions

Pressure 30.20 in
Visibility 9.0 miles
Clouds Mostly Cloudy 1000 ft
Overcast 1700 ft
Windchill 47 °F
Dew Point 46 °F
Humidity 96%
Rainfall 0.00 in
Snow Depth Not available.
UV 0 out of 12
Pollen 5.80 out of 12
Air Quality Not available.
Flu Activity Not available.
SPECI KCRS 200809Z AUTO 02004KT 9SM BKN010 OVC017 09/07 A3020 RMK AO2 T00890067

More Conditions Fewer Conditions

10-Day Weather Forecast

Almanac

Astronomy

Dec. 20, 2014 Rise Set
Actual Time
Civil Twilight
Nautical Twilight
Astronomical Twilight
Moon
Length of Visible Light
Length of Day
Tomorrow will be .
, % of the Moon is Illuminated

Today's Extremes

State Highs State Lows

Community

WunderPhotos

Upload Photos

1,779,146 photos uploaded!

WunderBlogs® & News

Nearby

Air Quality

  Air Quality AQ Index Pollutant
Not available.

Snow Depth

Station Depth Elevation

Earthquake Activity

City Distance Mag. Time & Date
Minimum magnitude displayed is 2.5.

Coastal Water Temperatures

Place Temperature

Nearby Weather Stations